Time;durP1;ratioP1;P1;durP2;ratioP2;P2;SDS_P1;SDS_P2;PMS_P1;PMS_P2;Temp;Humidity;BMP_temperature;BMP_pressure;BME280_temperature;BME280_humidity;BME280_pressure;Samples;Min_cycle;Max_cycle;Signal;HPM_P1;HPM_P2
2022/08/18 00:01:04;;;;;;;1.37;1.27;;;;;;;;;;5073112;28;20503;-79
2022/08/18 00:03:32;;;;;;;3.23;1.63;;;;;;;;;;5071556;28;20473;-78
2022/08/18 00:06:18;;;;;;;1.40;1.30;;;;;;;;;;5053135;28;20536;-78
2022/08/18 00:08:46;;;;;;;0.70;0.70;;;;;;;;;;5052855;28;20519;-78
2022/08/18 00:11:14;;;;;;;0.90;0.90;;;;;;;;;;5051595;28;20452;-79
2022/08/18 00:13:40;;;;;;;0.80;0.70;;;;;;;;;;5035604;28;20936;-77
2022/08/18 00:16:08;;;;;;;0.73;0.70;;;;;;;;;;5051132;28;20431;-78
2022/08/18 00:18:34;;;;;;;1.77;1.67;;;;;;;;;;5045862;28;20443;-79
2022/08/18 00:21:01;;;;;;;1.67;1.57;;;;;;;;;;5042424;28;20482;-78
2022/08/18 00:23:31;;;;;;;1.10;1.00;;;;;;;;;;5071979;28;20422;-78
2022/08/18 00:25:59;;;;;;;2.03;1.20;;;;;;;;;;5061915;28;20466;-78
2022/08/18 00:28:27;;;;;;;1.70;1.60;;;;;;;;;;5059223;28;20945;-78
2022/08/18 00:30:53;;;;;;;1.53;1.47;;;;;;;;;;5072760;28;20410;-79
2022/08/18 00:33:20;;;;;;;3.03;1.80;;;;;;;;;;5071657;28;20480;-79
2022/08/18 00:35:47;;;;;;;1.43;1.33;;;;;;;;;;5062238;28;20895;-77
2022/08/18 00:38:13;;;;;;;2.50;2.40;;;;;;;;;;5070919;28;20429;-78
2022/08/18 00:40:52;;;;;;;1.93;1.83;;;;;;;;;;5057029;28;20411;-78
2022/08/18 00:43:21;;;;;;;1.93;1.73;;;;;;;;;;5056778;28;20440;-78
2022/08/18 00:45:49;;;;;;;3.10;2.30;;;;;;;;;;5040261;28;20484;-78
2022/08/18 00:48:19;;;;;;;1.83;1.73;;;;;;;;;;5047252;28;20512;-78
2022/08/18 00:50:52;;;;;;;2.13;2.03;;;;;;;;;;5061673;28;20503;-79
2022/08/18 00:53:23;;;;;;;3.80;3.50;;;;;;;;;;5070108;28;20458;-79
2022/08/18 00:55:54;;;;;;;1.60;1.50;;;;;;;;;;5075846;28;20405;-78
2022/08/18 00:58:28;;;;;;;4.93;2.03;;;;;;;;;;5075105;28;20425;-79
2022/08/18 01:01:03;;;;;;;1.20;1.10;;;;;;;;;;5074726;28;20451;-79
2022/08/18 01:03:32;;;;;;;1.40;1.30;;;;;;;;;;5058181;28;20447;-79
2022/08/18 01:06:04;;;;;;;0.70;0.70;;;;;;;;;;5073968;28;20989;-77
2022/08/18 01:08:37;;;;;;;2.30;2.00;;;;;;;;;;5068462;28;20552;-78
2022/08/18 01:11:09;;;;;;;1.90;1.80;;;;;;;;;;5055270;28;20802;-78
2022/08/18 01:13:42;;;;;;;1.70;1.60;;;;;;;;;;5053916;28;20748;-78
2022/08/18 01:21:54;;;;;;;1.13;1.03;;;;;;;;;;5071317;28;20977;-78
2022/08/18 01:27:20;;;;;;;1.90;1.73;;;;;;;;;;5048096;28;20443;-78
2022/08/18 01:29:51;;;;;;;4.27;3.63;;;;;;;;;;5054684;28;20994;-78
2022/08/18 01:32:22;;;;;;;1.03;1.03;;;;;;;;;;5055632;28;20451;-78
2022/08/18 01:34:55;;;;;;;1.73;1.23;;;;;;;;;;5054609;28;20794;-79
2022/08/18 01:37:45;;;;;;;3.90;1.67;;;;;;;;;;5055676;28;20474;-78
2022/08/18 01:40:22;;;;;;;0.70;0.70;;;;;;;;;;5054576;28;21007;-79
2022/08/18 01:43:14;;;;;;;2.97;2.77;;;;;;;;;;5054933;28;20496;-78
2022/08/18 01:45:44;;;;;;;3.50;2.77;;;;;;;;;;5056930;28;20461;-78
2022/08/18 01:48:12;;;;;;;1.23;1.13;;;;;;;;;;5074505;28;20428;-78
2022/08/18 01:50:46;;;;;;;2.20;2.10;;;;;;;;;;5060791;28;20555;-77
2022/08/18 01:53:17;;;;;;;1.30;1.20;;;;;;;;;;5073722;28;20452;-78
2022/08/18 01:55:49;;;;;;;2.50;2.07;;;;;;;;;;5061247;28;20436;-79
2022/08/18 01:58:17;;;;;;;3.20;2.40;;;;;;;;;;5064328;28;20510;-78
2022/08/18 02:00:50;;;;;;;1.30;1.20;;;;;;;;;;5073884;28;20540;-78
2022/08/18 02:03:18;;;;;;;1.40;1.30;;;;;;;;;;5073559;28;20439;-79
2022/08/18 02:05:47;;;;;;;8.73;2.17;;;;;;;;;;5074091;28;20491;-78
2022/08/18 02:08:15;;;;;;;2.80;1.00;;;;;;;;;;5074649;28;20565;-78
2022/08/18 02:10:42;;;;;;;2.40;1.37;;;;;;;;;;5067471;28;20513;-78
2022/08/18 02:13:10;;;;;;;0.80;0.80;;;;;;;;;;5066309;28;20533;-78
2022/08/18 02:15:36;;;;;;;2.20;2.10;;;;;;;;;;5056776;28;20426;-78
2022/08/18 02:18:12;;;;;;;1.73;1.63;;;;;;;;;;5054591;28;20747;-76
2022/08/18 02:20:50;;;;;;;4.37;1.30;;;;;;;;;;5056080;28;20789;-77
2022/08/18 02:23:17;;;;;;;1.50;1.40;;;;;;;;;;5075377;28;20413;-78
2022/08/18 02:25:45;;;;;;;1.97;1.87;;;;;;;;;;5073363;28;20469;-77
2022/08/18 02:28:15;;;;;;;1.83;1.73;;;;;;;;;;5071650;28;20445;-78
2022/08/18 02:30:42;;;;;;;0.70;0.70;;;;;;;;;;5065261;28;20971;-78
2022/08/18 02:33:09;;;;;;;0.90;0.90;;;;;;;;;;5070146;28;20548;-77
2022/08/18 02:35:36;;;;;;;2.50;2.40;;;;;;;;;;5056698;28;20688;-77
2022/08/18 02:38:04;;;;;;;1.73;1.30;;;;;;;;;;5056782;28;20448;-76
2022/08/18 02:40:32;;;;;;;1.83;1.73;;;;;;;;;;5054039;28;20460;-77
2022/08/18 02:43:04;;;;;;;10.93;1.40;;;;;;;;;;5065591;28;20543;-78
2022/08/18 02:45:32;;;;;;;1.17;1.07;;;;;;;;;;5055665;28;20549;-78
2022/08/18 02:47:59;;;;;;;1.20;1.10;;;;;;;;;;5074076;28;20482;-80
2022/08/18 02:50:27;;;;;;;1.07;1.03;;;;;;;;;;5074903;28;20735;-78
2022/08/18 02:52:54;;;;;;;1.93;1.63;;;;;;;;;;5069557;28;20440;-78
2022/08/18 02:55:22;;;;;;;1.37;1.27;;;;;;;;;;5053966;28;20917;-78
2022/08/18 02:57:49;;;;;;;3.97;3.70;;;;;;;;;;5063411;28;20438;-78
2022/08/18 03:00:17;;;;;;;1.30;1.17;;;;;;;;;;5071137;28;20429;-78
2022/08/18 03:02:46;;;;;;;1.57;1.47;;;;;;;;;;5071561;28;20863;-79
2022/08/18 03:05:14;;;;;;;3.03;2.73;;;;;;;;;;5055752;28;20776;-79
2022/08/18 03:07:40;;;;;;;1.50;1.40;;;;;;;;;;5072717;28;20448;-79
2022/08/18 03:10:08;;;;;;;2.07;1.97;;;;;;;;;;5071919;28;20451;-77
2022/08/18 03:12:55;;;;;;;0.70;0.70;;;;;;;;;;5073961;28;20455;-79
2022/08/18 03:15:23;;;;;;;1.33;1.23;;;;;;;;;;5072190;28;20503;-78
2022/08/18 03:17:53;;;;;;;0.80;0.80;;;;;;;;;;5073400;28;20475;-78
2022/08/18 03:20:20;;;;;;;0.90;0.87;;;;;;;;;;5053406;28;20936;-79
2022/08/18 03:22:56;;;;;;;0.90;0.90;;;;;;;;;;5054788;28;20535;-79
2022/08/18 03:25:24;;;;;;;6.43;2.67;;;;;;;;;;5052473;28;20489;-79
2022/08/18 03:27:50;;;;;;;1.67;1.57;;;;;;;;;;5057199;28;20554;-79
2022/08/18 03:30:17;;;;;;;1.20;1.13;;;;;;;;;;5072594;28;20427;-79
2022/08/18 03:32:45;;;;;;;1.63;1.53;;;;;;;;;;5073663;28;20450;-79
2022/08/18 03:35:13;;;;;;;1.40;1.30;;;;;;;;;;5066419;28;20431;-79
2022/08/18 03:37:41;;;;;;;3.47;3.27;;;;;;;;;;5071403;28;20451;-79
2022/08/18 03:40:09;;;;;;;1.53;1.43;;;;;;;;;;5071654;28;20946;-79
2022/08/18 03:42:36;;;;;;;0.97;0.93;;;;;;;;;;5066902;28;20459;-79
2022/08/18 03:45:03;;;;;;;1.27;1.17;;;;;;;;;;5054179;28;20434;-79
2022/08/18 03:47:44;;;;;;;2.57;2.10;;;;;;;;;;5037570;28;20462;-79
2022/08/18 03:50:11;;;;;;;0.70;0.70;;;;;;;;;;5055097;28;20548;-78
2022/08/18 03:52:41;;;;;;;4.13;3.87;;;;;;;;;;5068725;28;20612;-78
2022/08/18 03:55:08;;;;;;;1.83;1.33;;;;;;;;;;5072580;28;20437;-80
2022/08/18 03:57:36;;;;;;;1.17;0.90;;;;;;;;;;5071587;28;20490;-79
2022/08/18 04:00:05;;;;;;;1.60;1.50;;;;;;;;;;5073557;28;20424;-80
2022/08/18 04:02:33;;;;;;;1.17;1.10;;;;;;;;;;5071464;28;20747;-79
2022/08/18 04:04:59;;;;;;;4.40;2.00;;;;;;;;;;5070963;28;20482;-79
2022/08/18 04:07:26;;;;;;;2.60;2.50;;;;;;;;;;5070420;28;20478;-80
2022/08/18 04:09:54;;;;;;;16.30;3.13;;;;;;;;;;5057663;28;20442;-79
2022/08/18 04:12:21;;;;;;;7.70;1.60;;;;;;;;;;5074944;28;20440;-79
2022/08/18 04:14:48;;;;;;;1.57;1.50;;;;;;;;;;5073981;28;20836;-80
2022/08/18 04:17:16;;;;;;;1.33;1.27;;;;;;;;;;5074652;28;20511;-79
2022/08/18 04:19:43;;;;;;;1.07;1.03;;;;;;;;;;5075870;28;20435;-79
2022/08/18 04:22:11;;;;;;;3.57;1.67;;;;;;;;;;5074317;28;20480;-79
2022/08/18 04:24:44;;;;;;;0.83;0.83;;;;;;;;;;5074120;28;20498;-79
2022/08/18 04:27:12;;;;;;;4.90;2.97;;;;;;;;;;5057443;28;20552;-79
2022/08/18 04:29:40;;;;;;;1.33;1.23;;;;;;;;;;5076799;28;20434;-79
2022/08/18 04:32:07;;;;;;;2.20;2.07;;;;;;;;;;5074508;28;20449;-78
2022/08/18 04:34:33;;;;;;;2.10;1.73;;;;;;;;;;5075758;28;20440;-79
2022/08/18 04:37:01;;;;;;;9.93;3.23;;;;;;;;;;5072060;28;20462;-79
2022/08/18 04:39:27;;;;;;;1.10;1.00;;;;;;;;;;5068594;28;20443;-80
2022/08/18 04:41:54;;;;;;;1.87;1.77;;;;;;;;;;5077409;28;20418;-79
2022/08/18 04:44:23;;;;;;;1.30;1.20;;;;;;;;;;5076376;28;20445;-79
2022/08/18 04:46:50;;;;;;;1.87;1.77;;;;;;;;;;5075779;28;20466;-79
2022/08/18 04:49:18;;;;;;;3.60;2.97;;;;;;;;;;5076087;28;20979;-79
2022/08/18 04:53:43;;;;;;;2.93;2.10;;;;;;;;;;5074899;28;20985;-80
2022/08/18 04:54:53;;;;;;;1.10;1.10;;;;;;;;;;5075230;28;20479;-79
2022/08/18 04:57:21;;;;;;;1.20;1.10;;;;;;;;;;5077692;28;20910;-79
2022/08/18 04:59:49;;;;;;;1.80;1.70;;;;;;;;;;5068992;28;20992;-79
2022/08/18 05:02:18;;;;;;;1.13;1.03;;;;;;;;;;5056173;28;20960;-80
2022/08/18 05:04:48;;;;;;;2.83;2.13;;;;;;;;;;5056519;28;20971;-78
2022/08/18 05:07:17;;;;;;;2.43;2.23;;;;;;;;;;5058593;28;20475;-79
2022/08/18 05:09:45;;;;;;;1.07;0.87;;;;;;;;;;5055780;28;20459;-78
2022/08/18 05:12:14;;;;;;;3.23;3.03;;;;;;;;;;5055636;28;20800;-78
2022/08/18 05:14:43;;;;;;;1.60;1.50;;;;;;;;;;5039062;28;20930;-79
2022/08/18 05:17:12;;;;;;;1.03;0.97;;;;;;;;;;5056487;28;20431;-78
2022/08/18 05:19:40;;;;;;;0.90;0.90;;;;;;;;;;5055655;28;20440;-79
2022/08/18 05:22:13;;;;;;;3.03;2.40;;;;;;;;;;5039846;28;20467;-79
2022/08/18 05:24:42;;;;;;;6.20;4.63;;;;;;;;;;5057410;28;20994;-78
2022/08/18 05:27:09;;;;;;;3.80;3.60;;;;;;;;;;5054764;28;20451;-77
2022/08/18 05:29:36;;;;;;;1.57;1.37;;;;;;;;;;5055858;28;20432;-78
2022/08/18 05:32:13;;;;;;;0.70;0.70;;;;;;;;;;5059200;28;20456;-79
2022/08/18 05:35:03;;;;;;;1.53;1.43;;;;;;;;;;5056603;28;20450;-78
2022/08/18 05:37:34;;;;;;;5.27;2.40;;;;;;;;;;5039896;28;20464;-79
2022/08/18 05:40:03;;;;;;;3.67;3.33;;;;;;;;;;5056787;28;20438;-79
2022/08/18 05:42:38;;;;;;;1.30;1.20;;;;;;;;;;5059399;28;20488;-79
2022/08/18 05:45:07;;;;;;;1.80;1.27;;;;;;;;;;5047968;28;20500;-79
2022/08/18 05:47:35;;;;;;;0.80;0.80;;;;;;;;;;5076099;28;20854;-79
2022/08/18 05:50:03;;;;;;;2.20;1.00;;;;;;;;;;5074069;28;20412;-74
2022/08/18 05:52:32;;;;;;;2.10;1.97;;;;;;;;;;5074134;28;20456;-74
2022/08/18 05:57:50;;;;;;;4.90;1.93;;;;;;;;;;5075888;28;20468;-76
2022/08/18 06:00:22;;;;;;;1.53;1.43;;;;;;;;;;5057757;28;20965;-76
2022/08/18 06:02:53;;;;;;;2.80;2.60;;;;;;;;;;5068703;28;20446;-76
2022/08/18 06:05:24;;;;;;;4.40;1.20;;;;;;;;;;5065264;28;20459;-76
2022/08/18 06:07:52;;;;;;;0.70;0.70;;;;;;;;;;5074979;28;20497;-75
2022/08/18 06:10:20;;;;;;;1.60;1.50;;;;;;;;;;5075708;28;20801;-72
2022/08/18 06:12:50;;;;;;;3.47;3.23;;;;;;;;;;5074249;28;20428;-72
2022/08/18 06:15:23;;;;;;;1.40;1.30;;;;;;;;;;5075698;28;20420;-73
2022/08/18 06:18:15;;;;;;;4.03;1.80;;;;;;;;;;5075064;28;20762;-72
2022/08/18 06:20:52;;;;;;;5.60;2.73;;;;;;;;;;5067925;28;20460;-72
2022/08/18 06:23:24;;;;;;;8.53;1.27;;;;;;;;;;5059146;28;20424;-77
2022/08/18 06:25:56;;;;;;;4.30;3.10;;;;;;;;;;5037084;28;20519;-76
2022/08/18 06:28:25;;;;;;;1.17;1.10;;;;;;;;;;5054540;28;20464;-77
2022/08/18 06:30:56;;;;;;;0.80;0.80;;;;;;;;;;5061908;28;20431;-80
2022/08/18 06:33:35;;;;;;;1.27;1.17;;;;;;;;;;5073215;28;20557;-79
2022/08/18 06:36:11;;;;;;;7.07;3.57;;;;;;;;;;5056339;28;20447;-79
2022/08/18 06:38:45;;;;;;;3.87;2.10;;;;;;;;;;5052550;28;20416;-76
2022/08/18 06:41:14;;;;;;;3.63;3.40;;;;;;;;;;5053455;28;20564;-75
2022/08/18 06:44:03;;;;;;;2.10;2.00;;;;;;;;;;5053276;28;20440;-75
2022/08/18 06:46:43;;;;;;;1.43;1.33;;;;;;;;;;5036964;28;20466;-75
2022/08/18 06:49:13;;;;;;;1.43;1.33;;;;;;;;;;5054822;28;20503;-75
2022/08/18 06:51:41;;;;;;;1.50;1.40;;;;;;;;;;5062246;28;20462;-75
2022/08/18 06:54:28;;;;;;;3.93;3.73;;;;;;;;;;5073225;28;20429;-76
2022/08/18 06:56:56;;;;;;;1.03;0.97;;;;;;;;;;5074379;28;20422;-76
2022/08/18 06:59:24;;;;;;;2.93;2.83;;;;;;;;;;5071431;28;20468;-76
2022/08/18 07:01:52;;;;;;;1.73;1.50;;;;;;;;;;5072149;28;20439;-77
2022/08/18 07:04:34;;;;;;;2.30;2.10;;;;;;;;;;5073281;28;20530;-76
2022/08/18 07:07:12;;;;;;;5.60;3.53;;;;;;;;;;5073978;28;20470;-75
2022/08/18 07:09:39;;;;;;;4.63;4.07;;;;;;;;;;5056413;28;20542;-77
2022/08/18 07:12:07;;;;;;;2.83;2.60;;;;;;;;;;5059553;28;20774;-76
2022/08/18 07:14:41;;;;;;;1.53;1.43;;;;;;;;;;5054433;28;20852;-76
2022/08/18 07:17:09;;;;;;;3.00;1.43;;;;;;;;;;5052765;28;20798;-76
2022/08/18 07:19:37;;;;;;;2.20;1.83;;;;;;;;;;5053001;28;20462;-77
2022/08/18 07:22:05;;;;;;;1.80;1.37;;;;;;;;;;5065428;28;20451;-76
2022/08/18 07:24:37;;;;;;;1.13;1.07;;;;;;;;;;5073577;28;20512;-76
2022/08/18 07:27:06;;;;;;;1.27;1.17;;;;;;;;;;5073038;28;20808;-76
2022/08/18 07:29:35;;;;;;;2.27;2.17;;;;;;;;;;5074417;28;20431;-76
2022/08/18 07:32:05;;;;;;;3.53;3.30;;;;;;;;;;5075387;28;20971;-76
2022/08/18 07:34:35;;;;;;;2.27;1.53;;;;;;;;;;5071348;28;20480;-76
2022/08/18 07:37:04;;;;;;;5.97;2.07;;;;;;;;;;5066102;28;20952;-79
2022/08/18 07:39:34;;;;;;;0.90;0.90;;;;;;;;;;5054563;28;20432;-78
2022/08/18 07:42:05;;;;;;;1.57;1.47;;;;;;;;;;5051046;28;20439;-77
2022/08/18 07:44:37;;;;;;;0.70;0.60;;;;;;;;;;5052120;28;20783;-78
2022/08/18 07:47:05;;;;;;;2.37;2.27;;;;;;;;;;5055143;28;20487;-78
2022/08/18 07:49:34;;;;;;;1.30;1.20;;;;;;;;;;5034876;28;20535;-77
2022/08/18 07:52:03;;;;;;;1.83;1.33;;;;;;;;;;5045144;28;20503;-77
2022/08/18 07:54:37;;;;;;;0.90;0.80;;;;;;;;;;5053286;28;20414;-77
2022/08/18 07:57:20;;;;;;;2.30;2.20;;;;;;;;;;5067708;28;20421;-80
2022/08/18 07:59:49;;;;;;;1.20;1.10;;;;;;;;;;5045521;28;20756;-77
2022/08/18 08:02:24;;;;;;;0.77;0.77;;;;;;;;;;5073581;28;20447;-77
2022/08/18 08:04:55;;;;;;;1.07;1.00;;;;;;;;;;5072903;28;20428;-78
2022/08/18 08:07:27;;;;;;;2.60;2.40;;;;;;;;;;5054549;28;20503;-77
2022/08/18 08:10:00;;;;;;;1.50;1.23;;;;;;;;;;5071669;28;20415;-76
2022/08/18 08:12:31;;;;;;;2.07;1.97;;;;;;;;;;5071249;28;20439;-77
2022/08/18 08:15:02;;;;;;;1.40;1.07;;;;;;;;;;5069366;28;20538;-77
2022/08/18 08:17:36;;;;;;;1.63;1.53;;;;;;;;;;5063115;28;20401;-77
2022/08/18 08:20:10;;;;;;;1.33;1.23;;;;;;;;;;5071119;28;20406;-76
2022/08/18 08:22:41;;;;;;;1.83;1.73;;;;;;;;;;5070798;28;20528;-76
2022/08/18 08:25:11;;;;;;;2.10;2.00;;;;;;;;;;5071065;28;20414;-79
2022/08/18 08:28:06;;;;;;;1.67;1.00;;;;;;;;;;5050536;28;20441;-78
2022/08/18 08:30:36;;;;;;;1.20;1.10;;;;;;;;;;5051428;28;20926;-78
2022/08/18 08:33:10;;;;;;;1.30;1.17;;;;;;;;;;5054830;28;20481;-77
2022/08/18 08:35:39;;;;;;;1.03;1.00;;;;;;;;;;5071424;28;20779;-78
2022/08/18 08:38:18;;;;;;;1.53;1.43;;;;;;;;;;5051938;28;20556;-76
2022/08/18 08:41:08;;;;;;;1.40;1.30;;;;;;;;;;5051620;28;20407;-77
2022/08/18 08:43:38;;;;;;;1.27;1.17;;;;;;;;;;5053816;28;20471;-77
2022/08/18 08:46:08;;;;;;;1.47;1.37;;;;;;;;;;5050621;28;20475;-76
2022/08/18 08:48:38;;;;;;;0.87;0.87;;;;;;;;;;5050363;28;20823;-76
2022/08/18 08:51:10;;;;;;;1.37;1.27;;;;;;;;;;5052385;28;20474;-77
2022/08/18 08:53:38;;;;;;;2.43;2.27;;;;;;;;;;5070576;28;20975;-76
2022/08/18 08:56:06;;;;;;;1.90;1.80;;;;;;;;;;5071802;28;20496;-77
2022/08/18 08:58:39;;;;;;;2.27;1.90;;;;;;;;;;5074325;28;20414;-77
2022/08/18 09:01:20;;;;;;;1.20;1.10;;;;;;;;;;5057687;28;20410;-77
2022/08/18 09:03:49;;;;;;;1.63;1.07;;;;;;;;;;5074385;28;20765;-76
2022/08/18 09:06:24;;;;;;;0.90;0.90;;;;;;;;;;5074720;28;20831;-76
2022/08/18 09:09:00;;;;;;;0.80;0.70;;;;;;;;;;5073268;28;20528;-76
2022/08/18 09:11:38;;;;;;;2.40;2.30;;;;;;;;;;5061655;28;20422;-77
2022/08/18 09:14:12;;;;;;;2.37;2.20;;;;;;;;;;5055126;28;20388;-77
2022/08/18 09:17:09;;;;;;;5.23;1.30;;;;;;;;;;5054576;28;20412;-74
2022/08/18 09:19:41;;;;;;;1.47;1.30;;;;;;;;;;5053171;28;20482;-74
2022/08/18 09:22:14;;;;;;;0.83;0.80;;;;;;;;;;5048182;28;20459;-73
2022/08/18 09:24:45;;;;;;;3.00;2.80;;;;;;;;;;5074591;28;20880;-74
2022/08/18 09:27:14;;;;;;;7.70;2.63;;;;;;;;;;5055462;28;20428;-75
2022/08/18 09:29:47;;;;;;;1.43;1.33;;;;;;;;;;5056403;28;20439;-74
2022/08/18 09:32:35;;;;;;;1.17;1.07;;;;;;;;;;5074222;28;20958;-75
2022/08/18 09:35:10;;;;;;;2.37;1.20;;;;;;;;;;5072988;28;20790;-75
2022/08/18 09:37:43;;;;;;;0.70;0.70;;;;;;;;;;5059971;28;20538;-75
2022/08/18 09:43:26;;;;;;;1.27;1.17;;;;;;;;;;5053349;28;21002;-78
2022/08/18 09:45:58;;;;;;;1.67;1.57;;;;;;;;;;5053435;28;20766;-78
2022/08/18 09:48:28;;;;;;;2.80;2.60;;;;;;;;;;5068089;28;20467;-78
2022/08/18 09:51:00;;;;;;;3.93;3.73;;;;;;;;;;5074492;28;20446;-78
2022/08/18 09:53:32;;;;;;;1.83;1.73;;;;;;;;;;5069363;28;20435;-78
2022/08/18 09:55:59;;;;;;;1.37;1.27;;;;;;;;;;5079484;28;20479;-77
2022/08/18 09:58:51;;;;;;;0.80;0.80;;;;;;;;;;5047157;28;20502;-77
2022/08/18 10:01:22;;;;;;;1.33;1.23;;;;;;;;;;5056312;28;20839;-77
2022/08/18 10:04:07;;;;;;;3.07;2.80;;;;;;;;;;5054666;28;20409;-78
2022/08/18 10:06:39;;;;;;;1.93;0.90;;;;;;;;;;5060074;28;20459;-76
2022/08/18 10:09:34;;;;;;;2.17;2.03;;;;;;;;;;5072988;28;20820;-76
2022/08/18 10:12:18;;;;;;;3.10;2.13;;;;;;;;;;5059301;28;20458;-78
2022/08/18 10:14:56;;;;;;;1.00;0.83;;;;;;;;;;5073530;28;20443;-77
2022/08/18 10:17:33;;;;;;;2.10;2.00;;;;;;;;;;5056708;28;20447;-78
2022/08/18 10:20:09;;;;;;;1.30;1.20;;;;;;;;;;5073933;28;20404;-77
2022/08/18 10:22:55;;;;;;;1.30;1.00;;;;;;;;;;5066112;28;20543;-77
2022/08/18 10:25:46;;;;;;;2.10;2.00;;;;;;;;;;5070869;28;20431;-76
2022/08/18 10:28:29;;;;;;;2.00;1.87;;;;;;;;;;5055946;28;20478;-77
2022/08/18 10:31:00;;;;;;;2.80;1.80;;;;;;;;;;5072866;28;20431;-78
2022/08/18 10:33:58;;;;;;;2.60;1.70;;;;;;;;;;5057933;28;20450;-76
2022/08/18 10:36:52;;;;;;;2.20;2.00;;;;;;;;;;5050101;28;20476;-75
2022/08/18 10:39:20;;;;;;;1.73;1.63;;;;;;;;;;5029605;28;20846;-78
2022/08/18 10:41:51;;;;;;;2.60;2.43;;;;;;;;;;5056322;28;20461;-77
2022/08/18 10:44:21;;;;;;;2.70;2.50;;;;;;;;;;5051879;28;20428;-76
2022/08/18 10:46:56;;;;;;;1.57;1.10;;;;;;;;;;5074332;28;20423;-77
2022/08/18 10:49:25;;;;;;;2.03;1.90;;;;;;;;;;5073672;28;20455;-78
2022/08/18 10:52:01;;;;;;;1.53;1.43;;;;;;;;;;5053870;28;20458;-78
2022/08/18 10:54:34;;;;;;;2.40;2.30;;;;;;;;;;5072158;28;20480;-77
2022/08/18 10:57:22;;;;;;;2.53;1.90;;;;;;;;;;5054775;28;20448;-77
2022/08/18 10:59:53;;;;;;;2.20;1.90;;;;;;;;;;5075375;28;20453;-77
2022/08/18 11:02:33;;;;;;;1.57;1.47;;;;;;;;;;5055945;28;20482;-77
2022/08/18 11:05:06;;;;;;;2.90;2.07;;;;;;;;;;5052646;28;20486;-77
2022/08/18 11:07:41;;;;;;;1.43;1.33;;;;;;;;;;5066504;28;21002;-77
2022/08/18 11:10:15;;;;;;;1.83;1.60;;;;;;;;;;5061332;28;20821;-76
2022/08/18 11:13:06;;;;;;;1.90;1.80;;;;;;;;;;5060680;28;20566;-78
2022/08/18 11:15:46;;;;;;;1.37;1.27;;;;;;;;;;5055305;28;20447;-77
2022/08/18 11:18:27;;;;;;;3.37;2.20;;;;;;;;;;5055169;28;20496;-77
2022/08/18 11:21:10;;;;;;;2.53;2.43;;;;;;;;;;5066546;28;21003;-78
2022/08/18 11:23:40;;;;;;;2.03;1.80;;;;;;;;;;5073506;28;20470;-76
2022/08/18 11:26:12;;;;;;;4.60;2.13;;;;;;;;;;5074585;28;20869;-78
2022/08/18 11:28:44;;;;;;;1.87;1.73;;;;;;;;;;5073161;28;20454;-77
2022/08/18 11:31:13;;;;;;;1.83;1.73;;;;;;;;;;5072678;28;20408;-77
2022/08/18 11:33:40;;;;;;;2.30;2.20;;;;;;;;;;5074076;28;20537;-77
2022/08/18 11:36:08;;;;;;;2.80;2.40;;;;;;;;;;5058469;28;20463;-76
2022/08/18 11:38:36;;;;;;;1.60;1.50;;;;;;;;;;5069066;28;20470;-77
2022/08/18 11:41:12;;;;;;;4.10;1.33;;;;;;;;;;5075704;28;20491;-78
2022/08/18 11:43:43;;;;;;;1.53;1.43;;;;;;;;;;5057459;28;20518;-77
2022/08/18 11:46:19;;;;;;;1.50;1.13;;;;;;;;;;5060153;28;20432;-77
2022/08/18 11:48:57;;;;;;;1.57;0.97;;;;;;;;;;5061669;28;20543;-79
2022/08/18 11:51:27;;;;;;;1.90;1.53;;;;;;;;;;5063140;28;20809;-78
2022/08/18 11:53:56;;;;;;;1.00;0.80;;;;;;;;;;5076254;28;20900;-79
2022/08/18 11:56:27;;;;;;;1.90;1.80;;;;;;;;;;5073030;28;20435;-78
2022/08/18 11:58:58;;;;;;;2.17;1.50;;;;;;;;;;5068913;28;20466;-78
2022/08/18 12:01:32;;;;;;;3.53;3.23;;;;;;;;;;5052212;28;20462;-77
2022/08/18 12:04:20;;;;;;;4.73;2.33;;;;;;;;;;5052790;28;20416;-78
2022/08/18 12:06:55;;;;;;;1.83;1.73;;;;;;;;;;5061127;28;20476;-78
2022/08/18 12:09:23;;;;;;;1.93;1.73;;;;;;;;;;5065435;28;20464;-77
2022/08/18 12:12:16;;;;;;;1.60;1.50;;;;;;;;;;5050831;28;20498;-78
2022/08/18 12:14:53;;;;;;;1.27;1.00;;;;;;;;;;5052944;28;20439;-77
2022/08/18 12:17:30;;;;;;;1.37;1.27;;;;;;;;;;5060146;28;20448;-78
2022/08/18 12:19:58;;;;;;;1.93;1.60;;;;;;;;;;5055218;28;20432;-77
2022/08/18 12:22:26;;;;;;;2.03;1.90;;;;;;;;;;5055391;28;20991;-79
2022/08/18 12:24:57;;;;;;;2.07;1.87;;;;;;;;;;5052089;28;20498;-78
2022/08/18 12:27:27;;;;;;;3.30;3.10;;;;;;;;;;5053946;28;20779;-77
2022/08/18 12:29:59;;;;;;;3.07;2.87;;;;;;;;;;5056204;28;20491;-77
2022/08/18 12:32:27;;;;;;;1.57;1.40;;;;;;;;;;5061199;28;20480;-78
2022/08/18 12:35:14;;;;;;;3.67;1.70;;;;;;;;;;5073138;28;20972;-77
2022/08/18 12:37:47;;;;;;;1.33;1.23;;;;;;;;;;5048758;28;20479;-78
2022/08/18 12:40:34;;;;;;;2.30;2.10;;;;;;;;;;5066684;28;20444;-77
2022/08/18 12:43:02;;;;;;;3.13;2.57;;;;;;;;;;5059764;28;20419;-77
2022/08/18 12:45:50;;;;;;;1.50;1.40;;;;;;;;;;5059101;28;20431;-78
2022/08/18 12:48:17;;;;;;;3.33;2.20;;;;;;;;;;5058763;28;20424;-78
2022/08/18 12:50:47;;;;;;;3.00;1.30;;;;;;;;;;5049976;28;20464;-77
2022/08/18 12:53:24;;;;;;;3.30;3.10;;;;;;;;;;5076931;28;20892;-77
2022/08/18 12:56:04;;;;;;;1.33;1.23;;;;;;;;;;5072685;28;20485;-76
2022/08/18 12:58:32;;;;;;;1.57;1.47;;;;;;;;;;5075650;28;20434;-77
2022/08/18 13:01:02;;;;;;;2.40;2.10;;;;;;;;;;5063529;28;20487;-77
2022/08/18 13:03:30;;;;;;;1.93;1.83;;;;;;;;;;5055663;28;20420;-75
2022/08/18 13:06:17;;;;;;;1.33;1.23;;;;;;;;;;5056419;28;21066;-77
2022/08/18 13:08:44;;;;;;;0.93;0.90;;;;;;;;;;5057964;28;20470;-77
2022/08/18 13:11:16;;;;;;;3.00;2.10;;;;;;;;;;5074484;28;20439;-78
2022/08/18 13:13:51;;;;;;;1.00;0.90;;;;;;;;;;5073245;28;20415;-76
2022/08/18 13:16:22;;;;;;;1.33;1.23;;;;;;;;;;5054658;28;20513;-76
2022/08/18 13:19:09;;;;;;;0.90;0.80;;;;;;;;;;5075768;28;20428;-77
2022/08/18 13:21:38;;;;;;;1.00;0.80;;;;;;;;;;5069217;28;20459;-77
2022/08/18 13:24:08;;;;;;;1.13;1.03;;;;;;;;;;5056338;28;20503;-77
2022/08/18 13:26:40;;;;;;;1.00;0.90;;;;;;;;;;5060961;28;20448;-78
2022/08/18 13:29:09;;;;;;;1.77;1.63;;;;;;;;;;5056015;28;20994;-78
2022/08/18 13:31:36;;;;;;;1.13;1.03;;;;;;;;;;5055200;28;20867;-78
2022/08/18 13:34:06;;;;;;;1.30;1.17;;;;;;;;;;5060323;28;20442;-77
2022/08/18 13:36:44;;;;;;;1.07;0.97;;;;;;;;;;5075312;28;20557;-78
2022/08/18 13:39:16;;;;;;;1.20;0.90;;;;;;;;;;5055981;28;20452;-77
2022/08/18 13:41:45;;;;;;;1.50;1.40;;;;;;;;;;5037513;28;20444;-77
2022/08/18 13:44:17;;;;;;;0.80;0.70;;;;;;;;;;5060613;28;20544;-77
2022/08/18 13:46:45;;;;;;;1.10;0.90;;;;;;;;;;5061944;28;20448;-78
2022/08/18 13:49:14;;;;;;;1.87;1.73;;;;;;;;;;5055736;28;20456;-77
2022/08/18 13:51:44;;;;;;;0.80;0.63;;;;;;;;;;5063264;28;20872;-78
2022/08/18 13:54:14;;;;;;;1.30;1.17;;;;;;;;;;5060751;28;20836;-77
2022/08/18 13:56:56;;;;;;;1.70;1.30;;;;;;;;;;5057883;28;20469;-77
2022/08/18 13:59:31;;;;;;;0.97;0.87;;;;;;;;;;5058673;28;20787;-77
2022/08/18 14:01:59;;;;;;;1.00;0.90;;;;;;;;;;5054274;28;20547;-77
2022/08/18 14:04:26;;;;;;;1.10;1.00;;;;;;;;;;5065296;28;20638;-78
2022/08/18 14:06:54;;;;;;;1.33;1.23;;;;;;;;;;5067262;28;20509;-76
2022/08/18 14:09:25;;;;;;;1.03;0.93;;;;;;;;;;5080139;28;20451;-77
2022/08/18 14:12:05;;;;;;;0.90;0.90;;;;;;;;;;5072066;28;20446;-78
2022/08/18 14:14:34;;;;;;;1.50;1.40;;;;;;;;;;5067535;28;20442;-77
2022/08/18 14:17:01;;;;;;;2.40;1.20;;;;;;;;;;5063286;28;20426;-76
2022/08/18 14:27:48;;;;;;;0.70;0.60;;;;;;;;;;5079035;28;20809;-77
2022/08/18 14:30:24;;;;;;;1.10;1.00;;;;;;;;;;5078222;28;20544;-77
2022/08/18 14:32:53;;;;;;;1.37;1.00;;;;;;;;;;5080373;28;20426;-76
2022/08/18 14:35:24;;;;;;;1.27;1.00;;;;;;;;;;5078486;28;20419;-77
2022/08/18 14:38:13;;;;;;;1.47;1.37;;;;;;;;;;5060493;28;20443;-76
2022/08/18 14:40:43;;;;;;;1.23;1.13;;;;;;;;;;5040035;28;20440;-77
2022/08/18 14:43:10;;;;;;;1.00;0.83;;;;;;;;;;5078538;28;20443;-77
2022/08/18 14:45:46;;;;;;;1.70;1.60;;;;;;;;;;5078364;28;20408;-75
2022/08/18 14:48:16;;;;;;;1.90;1.67;;;;;;;;;;5057238;28;20443;-76
2022/08/18 14:50:45;;;;;;;0.80;0.80;;;;;;;;;;5055025;28;20503;-76
2022/08/18 14:53:15;;;;;;;1.30;0.80;;;;;;;;;;5053301;28;20428;-76
2022/08/18 14:55:42;;;;;;;0.90;0.80;;;;;;;;;;5067279;28;20469;-76
2022/08/18 14:58:08;;;;;;;1.57;1.03;;;;;;;;;;5073682;28;20427;-76
2022/08/18 15:00:37;;;;;;;1.47;1.37;;;;;;;;;;5069092;28;20924;-76
2022/08/18 15:03:21;;;;;;;1.10;1.00;;;;;;;;;;5074242;28;20443;-75
2022/08/18 15:05:57;;;;;;;2.07;1.47;;;;;;;;;;5067420;28;20474;-76
2022/08/18 15:08:24;;;;;;;1.63;1.53;;;;;;;;;;5072156;28;20807;-76
2022/08/18 15:10:52;;;;;;;2.70;1.20;;;;;;;;;;5071246;28;20539;-75
2022/08/18 15:13:19;;;;;;;0.80;0.80;;;;;;;;;;5063346;28;20436;-75
2022/08/18 15:15:52;;;;;;;1.53;0.70;;;;;;;;;;5050924;28;20428;-75
2022/08/18 15:18:19;;;;;;;1.67;1.57;;;;;;;;;;5055228;28;20432;-75
2022/08/18 15:26:46;;;;;;;1.20;1.03;;;;;;;;;;5072295;28;20439;-77
2022/08/18 15:29:22;;;;;;;1.20;0.70;;;;;;;;;;5071762;28;20470;-75
2022/08/18 15:31:56;;;;;;;1.20;1.10;;;;;;;;;;5054192;28;20466;-77
2022/08/18 15:34:31;;;;;;;1.83;1.73;;;;;;;;;;5074336;28;20808;-76
2022/08/18 15:37:14;;;;;;;1.27;1.17;;;;;;;;;;5075884;28;20485;-77
2022/08/18 15:39:46;;;;;;;1.90;1.63;;;;;;;;;;5070685;28;20435;-77
2022/08/18 15:42:22;;;;;;;1.37;0.93;;;;;;;;;;5054659;28;20450;-77